Pagrindinis puslapis
METAR-TAF:

METAR-TAF

Oro uostai :

Andøya, Norvegija

platuma: 69-18N, ilguma: 016-09E, Aukštis: 1 m

Dabartinis oras

Ataskaita buvo paskelbta 38 minutes, ne 11:20 UTC
Vėjas 7 kt iš Rytų/Pietryčių
Temperatūra 11°C
Drėgmė 94%
Slėgis 1017 hPa
Matomumas 10 km arba daugiau
Apsiniaukę ne aukštis 600 ft

METAR: ENAN 221120Z 12007KT 9999 OVC006 11/10 Q1017

Laikas: 13:58 (11:58 UTC)

Prognozė

Prognozė galioja nuo 22 metu 06 UTC su 23 metu 06 UTC
Vėjas 5 kt nuo kintamojo kryptimis
Matomumas 10 km arba daugiau
Mažai debesys ne aukštis 800 ft
Su prošvaistėmis ne aukštis 1800 ft
Laikinai
nuo 22 metu 06 UTC su 22 metu 12 UTC
Matomumas: 2500 m
Su prošvaistėmis ne aukštis 300 ft
dulksna
Laikinai
nuo 22 metu 12 UTC su 22 metu 20 UTC
Išsisklaidę debesys ne aukštis 1200 ft, Liūtiniai kamuoliniai debesys.
Su prošvaistėmis ne aukštis 1400 ft
lietus
Laikinai
nuo 22 metu 14 UTC su 22 metu 19 UTC
Vėjas 10 kt iš Rytų/Pietryčių

TAF: ENAN 2206/2306 VRB05KT 9999 FEW008 BKN018 TEMPO 2206/2212 2500 DZ BKN003 TEMPO 2212/2220 SHRA SCT012CB BKN014 TEMPO 2214/2219 12010KT

Orai ataskaitas ir orų prognozės (METAR, TAF).

turimą stotys yra geltonos ir raudonos taškus žemėlapyje.

Perkelti pele per norėdami pamatyti stoties vardą.

Tada spustelėkite, norėdami matyti oro stebėjimo ir prognozės.

Norėdami pakeisti žemėlapį: spustelėkite ant žalios mygtukų su juodo kryžiaus žemyn,; žalią mygtuką su brūkšneliu, jei norite nutolinti; arba žalių rodyklių gretimoms žemėlapius.


METAR-TAF: